Impacts METAR Board
IDs:

KPIT - Pittsburgh Intl, PA, US

Updated at: 0400 UTC 22 Apr 2018
Potential Impact None Slight Moderate High
Time 21/16Z 21/17Z 21/18Z 21/19Z 21/20Z 21/21Z 21/22Z 21/23Z 22/00Z 22/01Z 22/02Z 22/03Z 22/04Z
Temp47 50 52 54 54 55 56 55 54 53 52 51 50
Dewpt24 26 24 23 22 19 18 17 23 24 24 23 28
Altim30.44 30.42 30.40 30.39 30.36 30.34 30.35 30.34 30.34 30.35 30.35 30.36 30.35
VIS10 10 10 10 10 10 10 10 10 10 10 10 10
CIG250 220 220 220 160 160 150 250 140 140 140 140 110
CoverOVCOVCOVCOVCOVCOVCBKNBKNOVCBKNBKNOVCOVC
FltCatVFRVFRVFRVFRVFRVFRVFRVFRVFRVFRVFRVFRVFR
WX--------------------------
WDir03100007003503603303301030
WSpd0 4 0 3 3 5 3 3 4 3 4 6 6
WGst-- -- -- -- -- -- -- -- -- -- -- -- --
Raw hourly METARs
KPIT 211551Z 00000KT 10SM OVC250 08/M04 A3044 RMK AO2 SLP321 T00831044
KPIT 211651Z 31004KT 10SM FEW150 OVC220 10/M03 A3042 RMK AO2 SLP315 T01001033
KPIT 211751Z 00000KT 10SM FEW150 OVC220 11/M04 A3040 RMK AO2 SLP310 T01111044 10122 20000 56017
KPIT 211851Z VRB03KT 10SM SCT150 OVC220 12/M05 A3039 RMK AO2 SLP306 T01221050
KPIT 211951Z VRB03KT 10SM BKN160 OVC220 12/M06 A3036 RMK AO2 SLP296 T01221056
KPIT 212051Z 07005KT 10SM OVC160 13/M07 A3034 RMK AO2 SLP289 T01281072 58021
KPIT 212151Z VRB03KT 10SM BKN150 BKN250 13/M08 A3035 RMK AO2 SLP293 T01331078
KPIT 212251Z 35003KT 10SM SCT150 BKN250 13/M08 A3034 RMK AO2 SLP290 T01281083
KPIT 212351Z 36004KT 10SM BKN140 OVC250 12/M05 A3034 RMK AO2 SLP290 T01221050 10139 20111 51001
KPIT 220051Z 33003KT 10SM BKN140 BKN250 12/M04 A3035 RMK AO2 SLP289 T01171044
KPIT 220151Z 33004KT 10SM BKN140 11/M04 A3035 RMK AO2 SLP290 T01111044
KPIT 220251Z 01006KT 10SM SCT120 BKN140 OVC250 11/M05 A3036 RMK AO2 SLP293 T01061050 53006
KPIT 220351Z 03006KT 10SM OVC110 10/M02 A3035 RMK AO2 SLP290 T01001022



Page loaded:  04:31 UTC  |   09:31 PM Pacific  |   10:31 PM Mountain  |   11:31 PM Central  |   12:31 AM Eastern

 

ADVISORIES

FORECASTS

FORECASTS

OBSERVATIONS

USER TOOLS

ABOUT US